createdAt,value
2022-08-30T00:02:57.149Z,3.67
2022-08-30T00:08:02.164Z,3.45
2022-08-30T00:13:06.614Z,3.58
2022-08-30T00:18:09.984Z,3.95
2022-08-30T00:23:15.192Z,3.90
2022-08-30T00:28:18.466Z,3.60
2022-08-30T00:33:22.469Z,4.32
2022-08-30T00:38:26.850Z,4.05
2022-08-30T00:43:34.226Z,3.97
2022-08-30T00:48:46.077Z,3.67
2022-08-30T00:53:54.817Z,3.75
2022-08-30T00:59:00.436Z,3.78
2022-08-30T01:04:05.171Z,4.00
2022-08-30T01:09:10.324Z,3.88
2022-08-30T01:14:15.013Z,3.88
2022-08-30T01:19:28.608Z,4.47
2022-08-30T01:24:34.623Z,3.78
2022-08-30T01:29:38.157Z,3.65
2022-08-30T01:34:41.351Z,4.82
2022-08-30T01:39:47.509Z,3.97
2022-08-30T01:44:50.439Z,3.85
2022-08-30T01:49:53.723Z,3.95
2022-08-30T01:54:58.051Z,4.35
2022-08-30T02:00:01.044Z,3.90
2022-08-30T02:05:04.872Z,4.43
2022-08-30T02:10:10.379Z,4.45
2022-08-30T02:15:13.329Z,5.50
2022-08-30T02:20:16.308Z,4.80
2022-08-30T02:25:21.335Z,4.90
2022-08-30T02:30:24.501Z,5.35
2022-08-30T02:35:28.330Z,4.72
2022-08-30T02:40:32.876Z,5.22
2022-08-30T02:45:35.929Z,4.90
2022-08-30T02:50:41.154Z,5.18
2022-08-30T02:55:45.730Z,5.40
2022-08-30T03:00:48.716Z,5.30
2022-08-30T03:05:54.038Z,5.93
2022-08-30T03:10:58.373Z,6.07
2022-08-30T03:16:01.339Z,5.90
2022-08-30T03:21:04.594Z,6.28
2022-08-30T03:26:09.244Z,6.00
2022-08-30T03:31:12.699Z,5.82
2022-08-30T03:36:15.703Z,5.97
2022-08-30T03:41:20.345Z,7.05
2022-08-30T03:46:26.901Z,6.90
2022-08-30T03:51:31.789Z,6.00
2022-08-30T03:56:36.099Z,6.40
2022-08-30T04:01:39.425Z,5.78
2022-08-30T04:06:42.409Z,6.22
2022-08-30T04:11:47.021Z,6.07
2022-08-30T04:16:50.287Z,6.75
2022-08-30T04:21:53.233Z,7.20
2022-08-30T04:26:57.780Z,7.20
2022-08-30T04:32:01.089Z,7.90
2022-08-30T04:37:04.320Z,7.70
2022-08-30T04:42:09.749Z,8.23
2022-08-30T04:47:12.864Z,7.45
2022-08-30T04:52:16.037Z,7.07
2022-08-30T04:57:20.438Z,7.57
2022-08-30T05:02:24.000Z,8.48
2022-08-30T05:07:27.235Z,8.15
2022-08-30T05:12:31.618Z,6.45
2022-08-30T05:17:34.654Z,7.13
2022-08-30T05:22:37.905Z,6.38
2022-08-30T05:27:42.261Z,7.10
2022-08-30T05:32:45.728Z,7.85
2022-08-30T05:37:48.783Z,7.38
2022-08-30T05:42:53.210Z,7.90
2022-08-30T05:47:56.502Z,7.80
2022-08-30T05:52:59.461Z,7.40
2022-08-30T05:58:03.726Z,7.65
2022-08-30T06:03:06.817Z,8.15
2022-08-30T06:08:09.919Z,6.95
2022-08-30T06:13:15.958Z,7.10
2022-08-30T06:18:28.296Z,7.40
2022-08-30T06:23:32.086Z,6.88
2022-08-30T06:28:36.624Z,7.18
2022-08-30T06:33:39.960Z,7.00
2022-08-30T06:38:43.560Z,6.95
2022-08-30T06:43:49.214Z,6.95
2022-08-30T06:48:52.703Z,6.47
2022-08-30T06:54:00.270Z,6.63
2022-08-30T06:59:05.101Z,5.97
2022-08-30T07:04:08.063Z,6.13
2022-08-30T07:09:11.110Z,7.03
2022-08-30T07:14:15.818Z,6.00
2022-08-30T07:19:21.005Z,5.85
2022-08-30T07:24:24.989Z,5.20
2022-08-30T07:29:29.304Z,4.85
2022-08-30T07:34:32.884Z,4.20
2022-08-30T07:39:41.745Z,4.10
2022-08-30T07:44:52.690Z,3.90
2022-08-30T07:50:01.070Z,4.10
2022-08-30T07:55:05.897Z,3.67
2022-08-30T08:00:11.841Z,3.80
2022-08-30T08:05:17.747Z,3.83
2022-08-30T08:10:21.515Z,3.55
2022-08-30T08:15:26.738Z,3.53
2022-08-30T08:20:30.111Z,2.60
2022-08-30T08:25:33.202Z,1.90
2022-08-30T08:30:38.751Z,1.90
2022-08-30T08:35:42.175Z,2.00
2022-08-30T08:40:54.853Z,2.03
2022-08-30T08:46:05.382Z,1.25
2022-08-30T08:51:29.285Z,1.30
2022-08-30T08:56:36.429Z,1.38
2022-08-30T09:01:40.816Z,1.45
2022-08-30T09:06:52.269Z,1.27
2022-08-30T09:11:55.324Z,1.10
2022-08-30T09:17:04.291Z,1.40
2022-08-30T09:22:26.632Z,1.20
2022-08-30T09:27:33.499Z,1.38
2022-08-30T09:32:41.390Z,1.10
2022-08-30T09:37:50.160Z,1.10
2022-08-30T09:43:08.462Z,1.20
2022-08-30T09:48:33.902Z,1.17
2022-08-30T09:54:01.219Z,1.27
2022-08-30T09:59:14.395Z,1.17
2022-08-30T10:04:31.810Z,0.95
2022-08-30T10:09:43.895Z,1.25
2022-08-30T10:14:57.886Z,1.02
2022-08-30T10:20:14.656Z,1.00
2022-08-30T10:25:22.216Z,1.23
2022-08-30T10:30:25.272Z,1.02
2022-08-30T10:35:38.721Z,1.05
2022-08-30T10:41:06.450Z,1.15
2022-08-30T10:46:15.928Z,1.13
2022-08-30T10:51:26.448Z,1.13
2022-08-30T10:56:31.055Z,1.50
2022-08-30T11:01:54.735Z,1.10
2022-08-30T11:07:10.110Z,1.10
2022-08-30T11:12:26.348Z,1.45
2022-08-30T11:17:33.924Z,1.27
2022-08-30T11:22:39.467Z,1.00
2022-08-30T11:27:48.933Z,1.15
2022-08-30T11:33:07.937Z,1.38
2022-08-30T11:38:41.183Z,1.08
2022-08-30T11:43:56.154Z,1.10
2022-08-30T11:49:07.319Z,1.23
2022-08-30T11:54:29.669Z,1.35
2022-08-30T11:59:44.235Z,1.45
2022-08-30T12:04:49.158Z,1.45
2022-08-30T12:10:05.847Z,1.45
2022-08-30T12:15:26.982Z,1.27
2022-08-30T12:20:39.212Z,0.95
2022-08-30T12:25:43.690Z,1.58
2022-08-30T12:30:46.952Z,1.25
2022-08-30T12:35:50.287Z,1.75
2022-08-30T12:40:57.974Z,1.23
2022-08-30T12:46:07.213Z,1.42
2022-08-30T12:51:26.916Z,1.27
2022-08-30T12:56:53.894Z,1.23
2022-08-30T13:02:08.858Z,1.38
2022-08-30T13:07:33.130Z,1.20
2022-08-30T13:12:38.550Z,1.20
2022-08-30T13:17:41.756Z,1.17
2022-08-30T13:23:03.213Z,1.20
2022-08-30T13:28:09.176Z,1.02
2022-08-30T13:33:16.726Z,1.30
2022-08-30T13:38:19.936Z,1.10
2022-08-30T13:43:24.285Z,1.33
2022-08-30T13:48:28.176Z,1.15
2022-08-30T13:58:56.132Z,1.20
2022-08-30T14:04:15.946Z,1.25
2022-08-30T14:09:19.414Z,1.20
2022-08-30T14:14:41.487Z,1.30
2022-08-30T14:19:46.588Z,1.55
2022-08-30T14:24:54.192Z,1.17
2022-08-30T14:29:59.982Z,1.30
2022-08-30T14:35:03.072Z,1.60
2022-08-30T14:40:07.876Z,1.10
2022-08-30T14:45:13.268Z,0.98
2022-08-30T14:50:16.727Z,1.10
2022-08-30T14:55:20.051Z,1.33
2022-08-30T15:00:25.621Z,1.55
2022-08-30T15:05:28.828Z,1.65
2022-08-30T15:10:31.892Z,1.10
2022-08-30T15:15:36.908Z,1.38
2022-08-30T15:20:46.603Z,1.50
2022-08-30T15:25:49.687Z,1.70
2022-08-30T15:30:55.736Z,1.40
2022-08-30T15:36:02.086Z,1.67
2022-08-30T15:41:09.809Z,2.20
2022-08-30T15:46:22.604Z,2.10
2022-08-30T15:51:26.945Z,1.70
2022-08-30T15:56:31.489Z,2.17
2022-08-30T16:01:36.389Z,1.70
2022-08-30T16:06:39.953Z,1.90
2022-08-30T16:11:45.341Z,1.58
2022-08-30T16:16:49.841Z,1.50
2022-08-30T16:21:52.901Z,1.73
2022-08-30T16:26:56.365Z,1.73
2022-08-30T16:32:01.014Z,1.42
2022-08-30T16:37:04.068Z,1.63
2022-08-30T16:42:07.758Z,1.40
2022-08-30T16:47:13.540Z,1.48
2022-08-30T16:52:17.637Z,1.65
2022-08-30T16:57:21.263Z,1.50
2022-08-30T17:02:26.889Z,1.30
2022-08-30T17:07:33.255Z,1.08
2022-08-30T17:12:36.615Z,1.30
2022-08-30T17:17:43.311Z,1.58
2022-08-30T17:22:46.465Z,1.20
2022-08-30T17:27:49.857Z,1.27
2022-08-30T17:32:54.670Z,1.02
2022-08-30T17:37:59.232Z,1.45
2022-08-30T17:43:02.436Z,1.25
2022-08-30T17:48:08.008Z,1.40
2022-08-30T17:53:10.951Z,1.73
2022-08-30T17:58:13.944Z,1.70
2022-08-30T18:03:18.663Z,1.00
2022-08-30T18:08:21.760Z,1.20
2022-08-30T18:13:24.781Z,1.33
2022-08-30T18:18:29.165Z,1.10
2022-08-30T18:23:32.255Z,1.67
2022-08-30T18:28:35.632Z,1.90
2022-08-30T18:33:39.970Z,1.30
2022-08-30T18:38:45.181Z,1.58
2022-08-30T18:43:48.818Z,1.40
2022-08-30T18:48:56.282Z,1.55
2022-08-30T18:54:00.419Z,1.30
2022-08-30T18:59:06.011Z,1.70
2022-08-30T19:09:38.290Z,1.20
2022-08-30T19:14:41.619Z,1.73
2022-08-30T19:19:49.088Z,1.40
2022-08-30T19:24:53.772Z,1.50
2022-08-30T19:29:57.840Z,1.60
2022-08-30T19:35:03.752Z,1.23
2022-08-30T19:40:10.415Z,1.50
2022-08-30T19:45:18.129Z,1.55
2022-08-30T19:50:23.876Z,1.73
2022-08-30T19:55:31.413Z,1.38
2022-08-30T20:00:36.058Z,1.98
2022-08-30T20:05:43.670Z,1.42
2022-08-30T20:10:47.315Z,2.10
2022-08-30T20:15:55.818Z,1.85
2022-08-30T20:21:00.729Z,1.95
2022-08-30T20:24:30.255Z,1.40
2022-08-30T20:26:05.850Z,1.92
2022-08-30T20:31:10.666Z,1.92
2022-08-30T20:36:15.480Z,1.80
2022-08-30T20:41:20.192Z,2.00
2022-08-30T20:46:23.356Z,1.90
2022-08-30T20:51:28.724Z,1.85
2022-08-30T20:56:31.911Z,1.92
2022-08-30T21:01:38.451Z,2.17
2022-08-30T21:06:43.585Z,1.83
2022-08-30T21:11:47.648Z,2.00
2022-08-30T21:16:51.292Z,1.55
2022-08-30T21:21:55.647Z,1.88
2022-08-30T21:27:00.192Z,1.83
2022-08-30T21:32:03.747Z,1.77
2022-08-30T21:37:08.185Z,1.75
2022-08-30T21:42:11.893Z,1.50
2022-08-30T21:47:14.982Z,1.90
2022-08-30T21:52:28.169Z,1.67
2022-08-30T21:57:31.462Z,2.00
2022-08-30T22:02:35.513Z,1.70
2022-08-30T22:07:39.987Z,2.10
2022-08-30T22:12:42.940Z,2.30
2022-08-30T22:17:46.330Z,2.05
2022-08-30T22:22:50.785Z,2.10
2022-08-30T22:27:53.851Z,2.38
2022-08-30T22:32:57.294Z,1.95
2022-08-30T22:38:02.032Z,2.03
2022-08-30T22:43:05.246Z,1.77
2022-08-30T22:48:08.968Z,1.45
2022-08-30T22:53:13.320Z,1.90
2022-08-30T22:58:19.070Z,1.95
2022-08-30T23:03:22.207Z,2.38
2022-08-30T23:08:26.529Z,1.92
2022-08-30T23:13:29.533Z,1.60
2022-08-30T23:18:32.920Z,2.53
2022-08-30T23:23:55.280Z,2.10
2022-08-30T23:29:15.756Z,2.25
2022-08-30T23:34:36.634Z,1.80
2022-08-30T23:39:58.347Z,2.47
2022-08-30T23:45:18.991Z,2.03
2022-08-30T23:50:39.108Z,1.90
2022-08-30T23:56:01.264Z,1.55
